sensor_id;sensor_type;location;lat;lon;timestamp;P1;durP1;ratioP1;P2;durP2;ratioP2
34152;SDS011;20426;48.372;10.888;2023-01-09T00:00:11;6.90;;;4.57;;
34152;SDS011;20426;48.372;10.888;2023-01-09T00:00:43;6.93;;;4.63;;
34152;SDS011;20426;48.372;10.888;2023-01-09T00:01:19;8.57;;;5.20;;
34152;SDS011;20426;48.372;10.888;2023-01-09T00:01:52;9.90;;;5.93;;
34152;SDS011;20426;48.372;10.888;2023-01-09T00:02:23;7.20;;;5.30;;
34152;SDS011;20426;48.372;10.888;2023-01-09T00:02:53;8.02;;;5.47;;
34152;SDS011;20426;48.372;10.888;2023-01-09T00:03:24;7.80;;;5.40;;
34152;SDS011;20426;48.372;10.888;2023-01-09T00:03:55;9.73;;;5.80;;
34152;SDS011;20426;48.372;10.888;2023-01-09T00:04:26;7.43;;;5.40;;
34152;SDS011;20426;48.372;10.888;2023-01-09T00:04:57;11.45;;;5.88;;
34152;SDS011;20426;48.372;10.888;2023-01-09T00:05:27;9.32;;;5.40;;
34152;SDS011;20426;48.372;10.888;2023-01-09T00:05:58;7.00;;;5.13;;
34152;SDS011;20426;48.372;10.888;2023-01-09T00:06:29;8.55;;;5.63;;
34152;SDS011;20426;48.372;10.888;2023-01-09T00:06:59;8.55;;;5.35;;
34152;SDS011;20426;48.372;10.888;2023-01-09T00:07:30;9.88;;;6.40;;
34152;SDS011;20426;48.372;10.888;2023-01-09T00:08:01;9.73;;;5.93;;
34152;SDS011;20426;48.372;10.888;2023-01-09T00:08:32;9.63;;;5.30;;
34152;SDS011;20426;48.372;10.888;2023-01-09T00:09:03;7.60;;;5.50;;
34152;SDS011;20426;48.372;10.888;2023-01-09T00:09:34;9.88;;;6.07;;
34152;SDS011;20426;48.372;10.888;2023-01-09T00:10:04;9.48;;;4.85;;
34152;SDS011;20426;48.372;10.888;2023-01-09T00:10:36;9.25;;;5.55;;
34152;SDS011;20426;48.372;10.888;2023-01-09T00:11:07;9.48;;;5.85;;
34152;SDS011;20426;48.372;10.888;2023-01-09T00:11:38;9.75;;;5.57;;
34152;SDS011;20426;48.372;10.888;2023-01-09T00:12:09;9.50;;;5.20;;
34152;SDS011;20426;48.372;10.888;2023-01-09T00:12:39;10.07;;;5.82;;
34152;SDS011;20426;48.372;10.888;2023-01-09T00:13:11;7.10;;;5.55;;
34152;SDS011;20426;48.372;10.888;2023-01-09T00:13:42;6.53;;;5.40;;
34152;SDS011;20426;48.372;10.888;2023-01-09T00:14:14;7.68;;;5.40;;
34152;SDS011;20426;48.372;10.888;2023-01-09T00:14:45;7.88;;;5.32;;
34152;SDS011;20426;48.372;10.888;2023-01-09T00:15:16;10.20;;;5.65;;
34152;SDS011;20426;48.372;10.888;2023-01-09T00:15:47;8.00;;;5.03;;
34152;SDS011;20426;48.372;10.888;2023-01-09T00:16:18;8.60;;;5.68;;
34152;SDS011;20426;48.372;10.888;2023-01-09T00:16:48;9.00;;;5.93;;
34152;SDS011;20426;48.372;10.888;2023-01-09T00:17:19;6.70;;;5.45;;
34152;SDS011;20426;48.372;10.888;2023-01-09T00:17:50;8.00;;;5.30;;
34152;SDS011;20426;48.372;10.888;2023-01-09T00:18:20;9.80;;;5.93;;
34152;SDS011;20426;48.372;10.888;2023-01-09T00:18:51;8.23;;;5.53;;
34152;SDS011;20426;48.372;10.888;2023-01-09T00:19:22;7.65;;;5.43;;
34152;SDS011;20426;48.372;10.888;2023-01-09T00:19:53;6.45;;;4.43;;
34152;SDS011;20426;48.372;10.888;2023-01-09T00:20:24;9.82;;;5.90;;
34152;SDS011;20426;48.372;10.888;2023-01-09T00:20:57;8.02;;;5.63;;
34152;SDS011;20426;48.372;10.888;2023-01-09T00:21:29;9.20;;;5.85;;
34152;SDS011;20426;48.372;10.888;2023-01-09T00:22:00;8.43;;;5.68;;
34152;SDS011;20426;48.372;10.888;2023-01-09T00:22:31;8.65;;;5.53;;
34152;SDS011;20426;48.372;10.888;2023-01-09T00:23:02;10.05;;;5.90;;
34152;SDS011;20426;48.372;10.888;2023-01-09T00:23:33;8.07;;;5.00;;
34152;SDS011;20426;48.372;10.888;2023-01-09T00:24:04;7.55;;;4.95;;
34152;SDS011;20426;48.372;10.888;2023-01-09T00:24:35;10.88;;;6.15;;
34152;SDS011;20426;48.372;10.888;2023-01-09T00:25:06;11.90;;;6.05;;
34152;SDS011;20426;48.372;10.888;2023-01-09T00:25:37;8.52;;;5.03;;
34152;SDS011;20426;48.372;10.888;2023-01-09T00:26:09;8.00;;;5.65;;
34152;SDS011;20426;48.372;10.888;2023-01-09T00:26:42;8.70;;;5.63;;
34152;SDS011;20426;48.372;10.888;2023-01-09T00:27:12;8.95;;;4.72;;
34152;SDS011;20426;48.372;10.888;2023-01-09T00:27:43;9.32;;;5.07;;
34152;SDS011;20426;48.372;10.888;2023-01-09T00:28:14;9.07;;;5.53;;
34152;SDS011;20426;48.372;10.888;2023-01-09T00:28:45;8.07;;;5.28;;
34152;SDS011;20426;48.372;10.888;2023-01-09T00:29:18;8.52;;;5.25;;
34152;SDS011;20426;48.372;10.888;2023-01-09T00:29:49;9.25;;;5.30;;
34152;SDS011;20426;48.372;10.888;2023-01-09T00:30:20;9.88;;;5.90;;
34152;SDS011;20426;48.372;10.888;2023-01-09T00:30:57;8.60;;;5.55;;
34152;SDS011;20426;48.372;10.888;2023-01-09T00:31:29;9.93;;;6.03;;
34152;SDS011;20426;48.372;10.888;2023-01-09T00:32:00;12.43;;;6.20;;
34152;SDS011;20426;48.372;10.888;2023-01-09T00:32:30;11.23;;;6.18;;
34152;SDS011;20426;48.372;10.888;2023-01-09T00:33:01;10.43;;;6.57;;
34152;SDS011;20426;48.372;10.888;2023-01-09T00:33:34;9.82;;;6.75;;
34152;SDS011;20426;48.372;10.888;2023-01-09T00:34:06;10.40;;;6.25;;
34152;SDS011;20426;48.372;10.888;2023-01-09T00:34:39;9.15;;;6.53;;
34152;SDS011;20426;48.372;10.888;2023-01-09T00:35:13;9.25;;;6.28;;
34152;SDS011;20426;48.372;10.888;2023-01-09T00:35:47;10.98;;;6.95;;
34152;SDS011;20426;48.372;10.888;2023-01-09T00:36:17;11.70;;;6.78;;
34152;SDS011;20426;48.372;10.888;2023-01-09T00:36:48;12.02;;;7.20;;
34152;SDS011;20426;48.372;10.888;2023-01-09T00:37:24;9.48;;;6.50;;
34152;SDS011;20426;48.372;10.888;2023-01-09T00:37:54;11.07;;;6.35;;
34152;SDS011;20426;48.372;10.888;2023-01-09T00:38:25;11.93;;;6.90;;
34152;SDS011;20426;48.372;10.888;2023-01-09T00:38:56;10.93;;;7.43;;
34152;SDS011;20426;48.372;10.888;2023-01-09T00:39:27;10.10;;;7.07;;
34152;SDS011;20426;48.372;10.888;2023-01-09T00:39:57;9.90;;;6.65;;
34152;SDS011;20426;48.372;10.888;2023-01-09T00:40:28;15.75;;;7.30;;
34152;SDS011;20426;48.372;10.888;2023-01-09T00:40:59;8.25;;;6.20;;
34152;SDS011;20426;48.372;10.888;2023-01-09T00:41:38;9.13;;;6.68;;
34152;SDS011;20426;48.372;10.888;2023-01-09T00:42:12;9.35;;;6.35;;
34152;SDS011;20426;48.372;10.888;2023-01-09T00:42:52;11.52;;;6.50;;
34152;SDS011;20426;48.372;10.888;2023-01-09T00:43:26;11.60;;;6.82;;
34152;SDS011;20426;48.372;10.888;2023-01-09T00:44:02;10.30;;;6.47;;
34152;SDS011;20426;48.372;10.888;2023-01-09T00:44:38;10.25;;;6.85;;
34152;SDS011;20426;48.372;10.888;2023-01-09T00:45:18;9.05;;;6.57;;
34152;SDS011;20426;48.372;10.888;2023-01-09T00:45:57;9.65;;;6.55;;
34152;SDS011;20426;48.372;10.888;2023-01-09T00:46:30;9.88;;;7.13;;
34152;SDS011;20426;48.372;10.888;2023-01-09T00:47:06;10.50;;;6.28;;
34152;SDS011;20426;48.372;10.888;2023-01-09T00:47:46;9.25;;;6.75;;
34152;SDS011;20426;48.372;10.888;2023-01-09T00:48:21;10.45;;;7.18;;
34152;SDS011;20426;48.372;10.888;2023-01-09T00:48:57;10.32;;;7.03;;
34152;SDS011;20426;48.372;10.888;2023-01-09T00:49:29;11.20;;;7.03;;
34152;SDS011;20426;48.372;10.888;2023-01-09T00:50:07;10.38;;;7.47;;
34152;SDS011;20426;48.372;10.888;2023-01-09T00:50:44;11.27;;;6.80;;
34152;SDS011;20426;48.372;10.888;2023-01-09T00:51:16;10.55;;;7.07;;
34152;SDS011;20426;48.372;10.888;2023-01-09T00:51:48;9.93;;;6.85;;
34152;SDS011;20426;48.372;10.888;2023-01-09T00:52:19;10.25;;;6.90;;
34152;SDS011;20426;48.372;10.888;2023-01-09T00:52:51;14.32;;;7.35;;
34152;SDS011;20426;48.372;10.888;2023-01-09T00:53:26;11.25;;;7.22;;
34152;SDS011;20426;48.372;10.888;2023-01-09T00:54:02;11.68;;;7.28;;
34152;SDS011;20426;48.372;10.888;2023-01-09T00:54:33;11.05;;;6.78;;
34152;SDS011;20426;48.372;10.888;2023-01-09T00:55:04;9.55;;;7.05;;
34152;SDS011;20426;48.372;10.888;2023-01-09T00:55:35;9.45;;;6.65;;
34152;SDS011;20426;48.372;10.888;2023-01-09T00:56:08;11.23;;;6.85;;
34152;SDS011;20426;48.372;10.888;2023-01-09T00:56:42;10.48;;;7.20;;
34152;SDS011;20426;48.372;10.888;2023-01-09T00:57:13;11.93;;;7.18;;
34152;SDS011;20426;48.372;10.888;2023-01-09T00:57:44;13.63;;;7.25;;
34152;SDS011;20426;48.372;10.888;2023-01-09T00:58:15;9.15;;;7.03;;
34152;SDS011;20426;48.372;10.888;2023-01-09T00:58:46;11.10;;;7.22;;
34152;SDS011;20426;48.372;10.888;2023-01-09T00:59:18;10.52;;;7.60;;
34152;SDS011;20426;48.372;10.888;2023-01-09T00:59:48;11.77;;;7.13;;
34152;SDS011;20426;48.372;10.888;2023-01-09T01:00:20;12.35;;;7.47;;
34152;SDS011;20426;48.372;10.888;2023-01-09T01:00:51;15.30;;;7.88;;
34152;SDS011;20426;48.372;10.888;2023-01-09T01:01:22;12.85;;;7.90;;
34152;SDS011;20426;48.372;10.888;2023-01-09T01:01:53;11.55;;;7.38;;
34152;SDS011;20426;48.372;10.888;2023-01-09T01:02:24;11.27;;;7.22;;
34152;SDS011;20426;48.372;10.888;2023-01-09T01:02:55;14.38;;;7.90;;
34152;SDS011;20426;48.372;10.888;2023-01-09T01:03:26;10.73;;;7.28;;
34152;SDS011;20426;48.372;10.888;2023-01-09T01:03:57;9.18;;;6.70;;
34152;SDS011;20426;48.372;10.888;2023-01-09T01:04:28;16.15;;;7.45;;
34152;SDS011;20426;48.372;10.888;2023-01-09T01:05:17;10.20;;;6.88;;
34152;SDS011;20426;48.372;10.888;2023-01-09T01:06:06;10.82;;;7.07;;
34152;SDS011;20426;48.372;10.888;2023-01-09T01:06:55;10.52;;;6.65;;
34152;SDS011;20426;48.372;10.888;2023-01-09T01:07:44;9.25;;;6.40;;
34152;SDS011;20426;48.372;10.888;2023-01-09T01:08:16;10.68;;;7.05;;
34152;SDS011;20426;48.372;10.888;2023-01-09T01:08:48;11.57;;;7.15;;
34152;SDS011;20426;48.372;10.888;2023-01-09T01:09:19;10.07;;;6.43;;
34152;SDS011;20426;48.372;10.888;2023-01-09T01:09:50;12.13;;;7.63;;
34152;SDS011;20426;48.372;10.888;2023-01-09T01:10:22;10.50;;;6.78;;
34152;SDS011;20426;48.372;10.888;2023-01-09T01:10:54;9.63;;;6.57;;
34152;SDS011;20426;48.372;10.888;2023-01-09T01:11:25;10.95;;;7.25;;
34152;SDS011;20426;48.372;10.888;2023-01-09T01:11:56;12.18;;;7.03;;
34152;SDS011;20426;48.372;10.888;2023-01-09T01:12:26;13.13;;;6.82;;
34152;SDS011;20426;48.372;10.888;2023-01-09T01:12:57;9.55;;;6.55;;
34152;SDS011;20426;48.372;10.888;2023-01-09T01:13:28;9.75;;;6.70;;
34152;SDS011;20426;48.372;10.888;2023-01-09T01:13:59;11.00;;;6.57;;
34152;SDS011;20426;48.372;10.888;2023-01-09T01:14:29;9.60;;;6.93;;
34152;SDS011;20426;48.372;10.888;2023-01-09T01:15:00;11.55;;;6.65;;
34152;SDS011;20426;48.372;10.888;2023-01-09T01:15:31;9.52;;;5.80;;
34152;SDS011;20426;48.372;10.888;2023-01-09T01:16:03;10.35;;;6.55;;
34152;SDS011;20426;48.372;10.888;2023-01-09T01:16:34;11.70;;;6.68;;
34152;SDS011;20426;48.372;10.888;2023-01-09T01:17:05;13.63;;;7.07;;
34152;SDS011;20426;48.372;10.888;2023-01-09T01:17:37;9.35;;;6.25;;
34152;SDS011;20426;48.372;10.888;2023-01-09T01:18:10;12.20;;;6.82;;
34152;SDS011;20426;48.372;10.888;2023-01-09T01:18:41;10.80;;;6.82;;
34152;SDS011;20426;48.372;10.888;2023-01-09T01:19:11;13.55;;;6.93;;
34152;SDS011;20426;48.372;10.888;2023-01-09T01:19:42;10.63;;;6.85;;
34152;SDS011;20426;48.372;10.888;2023-01-09T01:20:15;10.27;;;6.53;;
34152;SDS011;20426;48.372;10.888;2023-01-09T01:20:48;10.48;;;6.10;;
34152;SDS011;20426;48.372;10.888;2023-01-09T01:21:18;10.52;;;6.13;;
34152;SDS011;20426;48.372;10.888;2023-01-09T01:21:49;9.93;;;5.88;;
34152;SDS011;20426;48.372;10.888;2023-01-09T01:22:20;9.60;;;6.28;;
34152;SDS011;20426;48.372;10.888;2023-01-09T01:22:51;11.85;;;6.57;;
34152;SDS011;20426;48.372;10.888;2023-01-09T01:23:22;9.88;;;6.10;;
34152;SDS011;20426;48.372;10.888;2023-01-09T01:23:52;9.68;;;6.47;;
34152;SDS011;20426;48.372;10.888;2023-01-09T01:24:23;9.98;;;6.10;;
34152;SDS011;20426;48.372;10.888;2023-01-09T01:24:54;7.32;;;4.95;;
34152;SDS011;20426;48.372;10.888;2023-01-09T01:25:24;9.05;;;6.30;;
34152;SDS011;20426;48.372;10.888;2023-01-09T01:25:55;9.10;;;6.22;;
34152;SDS011;20426;48.372;10.888;2023-01-09T01:26:26;9.52;;;6.10;;
34152;SDS011;20426;48.372;10.888;2023-01-09T01:26:57;9.68;;;6.45;;
34152;SDS011;20426;48.372;10.888;2023-01-09T01:27:28;9.88;;;5.80;;
34152;SDS011;20426;48.372;10.888;2023-01-09T01:27:58;7.95;;;5.60;;
34152;SDS011;20426;48.372;10.888;2023-01-09T01:28:29;8.82;;;6.32;;
34152;SDS011;20426;48.372;10.888;2023-01-09T01:29:00;9.65;;;6.03;;
34152;SDS011;20426;48.372;10.888;2023-01-09T01:29:30;8.40;;;5.90;;
34152;SDS011;20426;48.372;10.888;2023-01-09T01:30:01;10.38;;;6.40;;
34152;SDS011;20426;48.372;10.888;2023-01-09T01:30:32;9.57;;;6.35;;
34152;SDS011;20426;48.372;10.888;2023-01-09T01:31:07;8.82;;;6.18;;
34152;SDS011;20426;48.372;10.888;2023-01-09T01:31:45;14.32;;;5.78;;
34152;SDS011;20426;48.372;10.888;2023-01-09T01:32:16;7.63;;;5.60;;
34152;SDS011;20426;48.372;10.888;2023-01-09T01:32:47;8.73;;;5.97;;
34152;SDS011;20426;48.372;10.888;2023-01-09T01:33:17;9.27;;;5.88;;
34152;SDS011;20426;48.372;10.888;2023-01-09T01:33:48;8.60;;;5.80;;
34152;SDS011;20426;48.372;10.888;2023-01-09T01:34:19;12.30;;;6.55;;
34152;SDS011;20426;48.372;10.888;2023-01-09T01:34:50;11.20;;;5.82;;
34152;SDS011;20426;48.372;10.888;2023-01-09T01:35:21;7.85;;;5.43;;
34152;SDS011;20426;48.372;10.888;2023-01-09T01:35:59;8.32;;;5.25;;
34152;SDS011;20426;48.372;10.888;2023-01-09T01:36:39;11.15;;;5.35;;
34152;SDS011;20426;48.372;10.888;2023-01-09T01:37:09;7.82;;;5.00;;
34152;SDS011;20426;48.372;10.888;2023-01-09T01:37:40;7.72;;;5.35;;
34152;SDS011;20426;48.372;10.888;2023-01-09T01:38:11;11.43;;;5.43;;
34152;SDS011;20426;48.372;10.888;2023-01-09T01:38:42;10.98;;;6.07;;
34152;SDS011;20426;48.372;10.888;2023-01-09T01:39:14;9.20;;;5.80;;
34152;SDS011;20426;48.372;10.888;2023-01-09T01:39:45;6.78;;;4.95;;
34152;SDS011;20426;48.372;10.888;2023-01-09T01:40:16;8.75;;;5.28;;
34152;SDS011;20426;48.372;10.888;2023-01-09T01:40:51;9.52;;;4.93;;
34152;SDS011;20426;48.372;10.888;2023-01-09T01:41:22;8.32;;;5.05;;
34152;SDS011;20426;48.372;10.888;2023-01-09T01:41:59;9.00;;;5.15;;
34152;SDS011;20426;48.372;10.888;2023-01-09T01:42:33;7.88;;;5.43;;
34152;SDS011;20426;48.372;10.888;2023-01-09T01:43:03;7.28;;;5.32;;
34152;SDS011;20426;48.372;10.888;2023-01-09T01:43:51;8.20;;;5.43;;
34152;SDS011;20426;48.372;10.888;2023-01-09T01:45:34;7.45;;;4.90;;
34152;SDS011;20426;48.372;10.888;2023-01-09T01:46:05;7.50;;;5.18;;
34152;SDS011;20426;48.372;10.888;2023-01-09T01:46:35;7.80;;;4.93;;
34152;SDS011;20426;48.372;10.888;2023-01-09T01:47:06;10.30;;;5.88;;
34152;SDS011;20426;48.372;10.888;2023-01-09T01:48:17;10.52;;;5.78;;
34152;SDS011;20426;48.372;10.888;2023-01-09T01:49:07;8.48;;;5.35;;
34152;SDS011;20426;48.372;10.888;2023-01-09T01:49:42;8.27;;;4.95;;
34152;SDS011;20426;48.372;10.888;2023-01-09T01:50:26;9.32;;;5.20;;
34152;SDS011;20426;48.372;10.888;2023-01-09T01:51:04;8.80;;;5.47;;
34152;SDS011;20426;48.372;10.888;2023-01-09T01:51:38;7.10;;;5.25;;
34152;SDS011;20426;48.372;10.888;2023-01-09T01:52:13;8.07;;;5.05;;
34152;SDS011;20426;48.372;10.888;2023-01-09T01:52:46;7.32;;;4.95;;
34152;SDS011;20426;48.372;10.888;2023-01-09T01:53:29;6.38;;;4.85;;
34152;SDS011;20426;48.372;10.888;2023-01-09T01:54:07;7.50;;;5.10;;
34152;SDS011;20426;48.372;10.888;2023-01-09T01:54:41;7.72;;;4.90;;
34152;SDS011;20426;48.372;10.888;2023-01-09T01:55:12;8.35;;;5.47;;
34152;SDS011;20426;48.372;10.888;2023-01-09T01:56:39;8.13;;;4.38;;
34152;SDS011;20426;48.372;10.888;2023-01-09T01:57:15;6.47;;;5.00;;
34152;SDS011;20426;48.372;10.888;2023-01-09T01:57:47;8.93;;;5.35;;
34152;SDS011;20426;48.372;10.888;2023-01-09T01:58:19;7.88;;;4.90;;
34152;SDS011;20426;48.372;10.888;2023-01-09T01:58:55;7.10;;;4.90;;
34152;SDS011;20426;48.372;10.888;2023-01-09T01:59:33;6.97;;;4.75;;
34152;SDS011;20426;48.372;10.888;2023-01-09T02:00:09;7.78;;;4.50;;
34152;SDS011;20426;48.372;10.888;2023-01-09T02:00:41;6.85;;;4.63;;
34152;SDS011;20426;48.372;10.888;2023-01-09T02:01:14;8.13;;;4.95;;
34152;SDS011;20426;48.372;10.888;2023-01-09T02:01:47;5.30;;;4.25;;
34152;SDS011;20426;48.372;10.888;2023-01-09T02:02:19;7.78;;;4.97;;
34152;SDS011;20426;48.372;10.888;2023-01-09T02:02:54;7.43;;;5.30;;
34152;SDS011;20426;48.372;10.888;2023-01-09T02:03:25;8.60;;;5.47;;
34152;SDS011;20426;48.372;10.888;2023-01-09T02:03:57;6.78;;;4.88;;
34152;SDS011;20426;48.372;10.888;2023-01-09T02:04:30;7.93;;;4.78;;
34152;SDS011;20426;48.372;10.888;2023-01-09T02:05:04;10.55;;;5.10;;
34152;SDS011;20426;48.372;10.888;2023-01-09T02:05:35;6.97;;;5.20;;
34152;SDS011;20426;48.372;10.888;2023-01-09T02:06:08;9.20;;;5.05;;
34152;SDS011;20426;48.372;10.888;2023-01-09T02:06:39;6.53;;;4.82;;
34152;SDS011;20426;48.372;10.888;2023-01-09T02:07:13;7.45;;;4.90;;
34152;SDS011;20426;48.372;10.888;2023-01-09T02:07:43;6.78;;;4.78;;
34152;SDS011;20426;48.372;10.888;2023-01-09T02:08:14;6.57;;;4.63;;
34152;SDS011;20426;48.372;10.888;2023-01-09T02:08:45;6.18;;;4.63;;
34152;SDS011;20426;48.372;10.888;2023-01-09T02:09:16;6.32;;;4.53;;
34152;SDS011;20426;48.372;10.888;2023-01-09T02:09:51;6.65;;;4.60;;
34152;SDS011;20426;48.372;10.888;2023-01-09T02:10:23;7.78;;;4.95;;
34152;SDS011;20426;48.372;10.888;2023-01-09T02:10:54;7.90;;;5.25;;
34152;SDS011;20426;48.372;10.888;2023-01-09T02:11:25;7.20;;;4.43;;
34152;SDS011;20426;48.372;10.888;2023-01-09T02:11:56;6.53;;;4.38;;
34152;SDS011;20426;48.372;10.888;2023-01-09T02:12:27;7.22;;;4.57;;
34152;SDS011;20426;48.372;10.888;2023-01-09T02:12:58;8.35;;;5.53;;
34152;SDS011;20426;48.372;10.888;2023-01-09T02:13:31;7.35;;;4.53;;
34152;SDS011;20426;48.372;10.888;2023-01-09T02:14:04;10.25;;;5.40;;
34152;SDS011;20426;48.372;10.888;2023-01-09T02:14:34;6.85;;;4.72;;
34152;SDS011;20426;48.372;10.888;2023-01-09T02:15:07;6.93;;;4.72;;
34152;SDS011;20426;48.372;10.888;2023-01-09T02:16:44;9.23;;;5.13;;
34152;SDS011;20426;48.372;10.888;2023-01-09T02:17:34;8.48;;;5.22;;
34152;SDS011;20426;48.372;10.888;2023-01-09T02:18:18;8.27;;;4.60;;
34152;SDS011;20426;48.372;10.888;2023-01-09T02:20:31;8.88;;;5.22;;
34152;SDS011;20426;48.372;10.888;2023-01-09T02:23:10;9.23;;;5.00;;
34152;SDS011;20426;48.372;10.888;2023-01-09T02:24:35;7.00;;;5.03;;
34152;SDS011;20426;48.372;10.888;2023-01-09T02:27:38;8.60;;;5.35;;
34152;SDS011;20426;48.372;10.888;2023-01-09T02:30:30;8.75;;;5.25;;
34152;SDS011;20426;48.372;10.888;2023-01-09T02:33:24;8.68;;;5.32;;
34152;SDS011;20426;48.372;10.888;2023-01-09T02:34:10;10.07;;;5.20;;
34152;SDS011;20426;48.372;10.888;2023-01-09T02:38:57;10.25;;;5.32;;
34152;SDS011;20426;48.372;10.888;2023-01-09T02:39:41;9.68;;;5.15;;
34152;SDS011;20426;48.372;10.888;2023-01-09T02:40:38;7.82;;;5.80;;
34152;SDS011;20426;48.372;10.888;2023-01-09T02:41:20;7.85;;;5.90;;
34152;SDS011;20426;48.372;10.888;2023-01-09T02:42:52;8.93;;;5.70;;
34152;SDS011;20426;48.372;10.888;2023-01-09T02:43:24;11.57;;;6.80;;
34152;SDS011;20426;48.372;10.888;2023-01-09T02:44:42;7.45;;;5.65;;
34152;SDS011;20426;48.372;10.888;2023-01-09T02:45:13;9.65;;;5.97;;
34152;SDS011;20426;48.372;10.888;2023-01-09T02:45:44;7.57;;;5.50;;
34152;SDS011;20426;48.372;10.888;2023-01-09T02:46:17;8.82;;;6.18;;
34152;SDS011;20426;48.372;10.888;2023-01-09T02:47:36;8.00;;;5.10;;
34152;SDS011;20426;48.372;10.888;2023-01-09T02:48:11;10.48;;;5.40;;
34152;SDS011;20426;48.372;10.888;2023-01-09T02:48:42;9.68;;;5.93;;
34152;SDS011;20426;48.372;10.888;2023-01-09T02:49:15;8.90;;;5.55;;
34152;SDS011;20426;48.372;10.888;2023-01-09T02:49:47;7.55;;;5.75;;
34152;SDS011;20426;48.372;10.888;2023-01-09T02:50:22;8.30;;;5.38;;
34152;SDS011;20426;48.372;10.888;2023-01-09T02:51:04;9.60;;;5.55;;
34152;SDS011;20426;48.372;10.888;2023-01-09T02:51:48;8.23;;;5.60;;
34152;SDS011;20426;48.372;10.888;2023-01-09T02:54:07;8.27;;;5.82;;
34152;SDS011;20426;48.372;10.888;2023-01-09T02:55:22;11.35;;;5.57;;
34152;SDS011;20426;48.372;10.888;2023-01-09T02:57:13;8.70;;;5.68;;
34152;SDS011;20426;48.372;10.888;2023-01-09T03:03:10;6.30;;;4.78;;
34152;SDS011;20426;48.372;10.888;2023-01-09T03:05:05;9.70;;;5.50;;
34152;SDS011;20426;48.372;10.888;2023-01-09T03:05:42;7.90;;;5.63;;
34152;SDS011;20426;48.372;10.888;2023-01-09T03:06:31;8.48;;;5.30;;
34152;SDS011;20426;48.372;10.888;2023-01-09T03:07:59;7.00;;;5.15;;
34152;SDS011;20426;48.372;10.888;2023-01-09T03:08:37;9.10;;;6.05;;
34152;SDS011;20426;48.372;10.888;2023-01-09T03:09:16;8.52;;;5.07;;
34152;SDS011;20426;48.372;10.888;2023-01-09T03:09:49;10.45;;;5.45;;
34152;SDS011;20426;48.372;10.888;2023-01-09T03:10:34;7.70;;;5.85;;
34152;SDS011;20426;48.372;10.888;2023-01-09T03:11:20;7.85;;;5.25;;
34152;SDS011;20426;48.372;10.888;2023-01-09T03:11:52;10.85;;;6.32;;
34152;SDS011;20426;48.372;10.888;2023-01-09T03:12:27;8.23;;;5.30;;
34152;SDS011;20426;48.372;10.888;2023-01-09T03:13:00;8.05;;;5.28;;
34152;SDS011;20426;48.372;10.888;2023-01-09T03:13:34;7.43;;;5.03;;
34152;SDS011;20426;48.372;10.888;2023-01-09T03:14:20;9.65;;;5.43;;
34152;SDS011;20426;48.372;10.888;2023-01-09T03:14:54;6.57;;;4.78;;
34152;SDS011;20426;48.372;10.888;2023-01-09T03:15:29;7.72;;;5.00;;
34152;SDS011;20426;48.372;10.888;2023-01-09T03:16:06;7.55;;;5.57;;
34152;SDS011;20426;48.372;10.888;2023-01-09T03:16:40;5.97;;;4.90;;
34152;SDS011;20426;48.372;10.888;2023-01-09T03:17:15;6.32;;;4.93;;
34152;SDS011;20426;48.372;10.888;2023-01-09T03:17:51;8.35;;;5.40;;
34152;SDS011;20426;48.372;10.888;2023-01-09T03:18:24;8.68;;;5.65;;
34152;SDS011;20426;48.372;10.888;2023-01-09T03:18:58;7.68;;;5.60;;
34152;SDS011;20426;48.372;10.888;2023-01-09T03:19:30;9.05;;;5.30;;
34152;SDS011;20426;48.372;10.888;2023-01-09T03:20:03;8.57;;;5.97;;
34152;SDS011;20426;48.372;10.888;2023-01-09T03:20:36;7.55;;;5.38;;
34152;SDS011;20426;48.372;10.888;2023-01-09T03:21:08;7.13;;;5.20;;
34152;SDS011;20426;48.372;10.888;2023-01-09T03:21:41;7.00;;;5.25;;
34152;SDS011;20426;48.372;10.888;2023-01-09T03:22:13;9.43;;;5.43;;
34152;SDS011;20426;48.372;10.888;2023-01-09T03:22:46;9.00;;;5.70;;
34152;SDS011;20426;48.372;10.888;2023-01-09T03:23:26;9.18;;;5.47;;
34152;SDS011;20426;48.372;10.888;2023-01-09T03:23:57;8.98;;;5.70;;
34152;SDS011;20426;48.372;10.888;2023-01-09T03:24:29;7.45;;;5.53;;
34152;SDS011;20426;48.372;10.888;2023-01-09T03:25:01;8.02;;;5.50;;
34152;SDS011;20426;48.372;10.888;2023-01-09T03:25:32;8.10;;;5.50;;
34152;SDS011;20426;48.372;10.888;2023-01-09T03:26:03;7.65;;;5.53;;
34152;SDS011;20426;48.372;10.888;2023-01-09T03:26:34;7.40;;;5.40;;
34152;SDS011;20426;48.372;10.888;2023-01-09T03:27:06;8.05;;;5.30;;
34152;SDS011;20426;48.372;10.888;2023-01-09T03:27:38;8.15;;;5.03;;
34152;SDS011;20426;48.372;10.888;2023-01-09T03:28:13;7.15;;;5.90;;
34152;SDS011;20426;48.372;10.888;2023-01-09T03:29:00;7.55;;;5.25;;
34152;SDS011;20426;48.372;10.888;2023-01-09T03:29:30;7.32;;;5.20;;
34152;SDS011;20426;48.372;10.888;2023-01-09T03:30:01;7.15;;;5.03;;
34152;SDS011;20426;48.372;10.888;2023-01-09T03:30:33;6.93;;;4.45;;
34152;SDS011;20426;48.372;10.888;2023-01-09T03:31:05;7.50;;;5.15;;
34152;SDS011;20426;48.372;10.888;2023-01-09T03:31:36;8.02;;;5.38;;
34152;SDS011;20426;48.372;10.888;2023-01-09T03:32:06;7.15;;;5.00;;
34152;SDS011;20426;48.372;10.888;2023-01-09T03:32:37;7.10;;;5.20;;
34152;SDS011;20426;48.372;10.888;2023-01-09T03:33:08;6.95;;;4.97;;
34152;SDS011;20426;48.372;10.888;2023-01-09T03:33:39;6.93;;;5.05;;
34152;SDS011;20426;48.372;10.888;2023-01-09T03:34:10;7.57;;;5.10;;
34152;SDS011;20426;48.372;10.888;2023-01-09T03:34:41;7.13;;;4.85;;
34152;SDS011;20426;48.372;10.888;2023-01-09T03:35:12;6.90;;;4.85;;
34152;SDS011;20426;48.372;10.888;2023-01-09T03:35:43;6.57;;;4.57;;
34152;SDS011;20426;48.372;10.888;2023-01-09T03:36:14;8.80;;;4.63;;
34152;SDS011;20426;48.372;10.888;2023-01-09T03:36:46;5.85;;;4.20;;
34152;SDS011;20426;48.372;10.888;2023-01-09T03:37:16;6.38;;;4.90;;
34152;SDS011;20426;48.372;10.888;2023-01-09T03:37:47;6.32;;;3.83;;
34152;SDS011;20426;48.372;10.888;2023-01-09T03:38:18;5.35;;;3.85;;
34152;SDS011;20426;48.372;10.888;2023-01-09T03:38:49;8.63;;;4.55;;
34152;SDS011;20426;48.372;10.888;2023-01-09T03:39:20;6.55;;;4.45;;
34152;SDS011;20426;48.372;10.888;2023-01-09T03:39:51;5.88;;;4.20;;
34152;SDS011;20426;48.372;10.888;2023-01-09T03:40:21;5.07;;;3.97;;
34152;SDS011;20426;48.372;10.888;2023-01-09T03:40:52;5.05;;;3.70;;
34152;SDS011;20426;48.372;10.888;2023-01-09T03:41:23;5.15;;;3.92;;
34152;SDS011;20426;48.372;10.888;2023-01-09T03:41:54;4.63;;;3.53;;
34152;SDS011;20426;48.372;10.888;2023-01-09T03:42:24;7.93;;;3.80;;
34152;SDS011;20426;48.372;10.888;2023-01-09T03:42:55;5.80;;;4.03;;
34152;SDS011;20426;48.372;10.888;2023-01-09T03:43:26;6.35;;;4.60;;
34152;SDS011;20426;48.372;10.888;2023-01-09T03:43:57;5.00;;;3.58;;
34152;SDS011;20426;48.372;10.888;2023-01-09T03:44:28;5.57;;;3.97;;
34152;SDS011;20426;48.372;10.888;2023-01-09T03:44:58;4.45;;;3.33;;
34152;SDS011;20426;48.372;10.888;2023-01-09T03:45:29;5.70;;;3.40;;
34152;SDS011;20426;48.372;10.888;2023-01-09T03:46:00;5.03;;;3.63;;
34152;SDS011;20426;48.372;10.888;2023-01-09T03:46:31;5.90;;;4.30;;
34152;SDS011;20426;48.372;10.888;2023-01-09T03:47:02;4.88;;;3.70;;
34152;SDS011;20426;48.372;10.888;2023-01-09T03:47:32;4.72;;;3.28;;
34152;SDS011;20426;48.372;10.888;2023-01-09T03:48:03;4.82;;;3.88;;
34152;SDS011;20426;48.372;10.888;2023-01-09T03:48:34;5.43;;;3.97;;
34152;SDS011;20426;48.372;10.888;2023-01-09T03:49:05;5.47;;;3.10;;